sensor_id;sensor_type;location;lat;lon;timestamp;pressure;altitude;pressure_sealevel;temperature;humidity
19526;BME280;9907;42.676;26.348;2023-06-26T00:00:18;99197.91;;;21.47;100.00
19526;BME280;9907;42.676;26.348;2023-06-26T00:02:43;99206.03;;;21.47;100.00
19526;BME280;9907;42.676;26.348;2023-06-26T00:05:09;99202.53;;;21.40;100.00
19526;BME280;9907;42.676;26.348;2023-06-26T00:07:34;99196.56;;;21.56;100.00
19526;BME280;9907;42.676;26.348;2023-06-26T00:10:01;99204.22;;;21.59;100.00
19526;BME280;9907;42.676;26.348;2023-06-26T00:12:28;99187.25;;;21.52;100.00
19526;BME280;9907;42.676;26.348;2023-06-26T00:14:53;99193.50;;;21.52;100.00
19526;BME280;9907;42.676;26.348;2023-06-26T00:17:19;99197.19;;;21.58;100.00
19526;BME280;9907;42.676;26.348;2023-06-26T00:19:44;99198.19;;;21.39;100.00
19526;BME280;9907;42.676;26.348;2023-06-26T00:22:11;99202.50;;;21.46;100.00
19526;BME280;9907;42.676;26.348;2023-06-26T00:24:36;99189.38;;;21.50;100.00
19526;BME280;9907;42.676;26.348;2023-06-26T00:27:02;99190.25;;;21.62;100.00
19526;BME280;9907;42.676;26.348;2023-06-26T00:29:27;99193.59;;;21.64;100.00
19526;BME280;9907;42.676;26.348;2023-06-26T00:31:53;99191.06;;;21.69;100.00
19526;BME280;9907;42.676;26.348;2023-06-26T00:34:18;99187.97;;;21.65;100.00
19526;BME280;9907;42.676;26.348;2023-06-26T00:36:44;99185.88;;;21.67;100.00
19526;BME280;9907;42.676;26.348;2023-06-26T00:39:10;99180.84;;;21.71;100.00
19526;BME280;9907;42.676;26.348;2023-06-26T00:41:36;99183.59;;;21.46;100.00
19526;BME280;9907;42.676;26.348;2023-06-26T00:44:03;99178.19;;;21.46;100.00
19526;BME280;9907;42.676;26.348;2023-06-26T00:46:28;99170.00;;;21.53;100.00
19526;BME280;9907;42.676;26.348;2023-06-26T00:48:55;99161.59;;;21.43;100.00
19526;BME280;9907;42.676;26.348;2023-06-26T00:51:21;99165.66;;;21.52;100.00
19526;BME280;9907;42.676;26.348;2023-06-26T00:53:47;99158.53;;;21.57;100.00
19526;BME280;9907;42.676;26.348;2023-06-26T00:56:15;99157.41;;;21.65;100.00
19526;BME280;9907;42.676;26.348;2023-06-26T00:58:40;99149.91;;;21.67;100.00
19526;BME280;9907;42.676;26.348;2023-06-26T01:01:06;99153.50;;;21.61;100.00
19526;BME280;9907;42.676;26.348;2023-06-26T01:03:34;99154.09;;;21.63;100.00
19526;BME280;9907;42.676;26.348;2023-06-26T01:06:00;99147.38;;;21.72;100.00
19526;BME280;9907;42.676;26.348;2023-06-26T01:08:27;99150.34;;;21.64;100.00
19526;BME280;9907;42.676;26.348;2023-06-26T01:10:53;99153.50;;;21.61;100.00
19526;BME280;9907;42.676;26.348;2023-06-26T01:13:18;99150.94;;;21.66;100.00
19526;BME280;9907;42.676;26.348;2023-06-26T01:15:44;99149.69;;;21.68;100.00
19526;BME280;9907;42.676;26.348;2023-06-26T01:18:10;99142.03;;;21.65;100.00
19526;BME280;9907;42.676;26.348;2023-06-26T01:20:37;99143.59;;;21.55;100.00
19526;BME280;9907;42.676;26.348;2023-06-26T01:23:12;99145.53;;;21.48;100.00
19526;BME280;9907;42.676;26.348;2023-06-26T01:28:39;99143.00;;;21.53;100.00
19526;BME280;9907;42.676;26.348;2023-06-26T01:31:07;99130.44;;;21.58;100.00
19526;BME280;9907;42.676;26.348;2023-06-26T01:33:32;99139.47;;;21.52;100.00
19526;BME280;9907;42.676;26.348;2023-06-26T01:35:58;99135.56;;;21.48;100.00
19526;BME280;9907;42.676;26.348;2023-06-26T01:38:24;99136.31;;;21.55;100.00
19526;BME280;9907;42.676;26.348;2023-06-26T01:40:51;99131.72;;;21.56;100.00
19526;BME280;9907;42.676;26.348;2023-06-26T01:46:13;99135.44;;;21.61;100.00
19526;BME280;9907;42.676;26.348;2023-06-26T01:48:47;99134.34;;;21.62;100.00
19526;BME280;9907;42.676;26.348;2023-06-26T01:51:17;99133.09;;;21.65;100.00
19526;BME280;9907;42.676;26.348;2023-06-26T01:53:50;99136.03;;;21.63;100.00
19526;BME280;9907;42.676;26.348;2023-06-26T01:56:18;99133.47;;;21.68;100.00
19526;BME280;9907;42.676;26.348;2023-06-26T01:58:46;99135.34;;;21.68;100.00
19526;BME280;9907;42.676;26.348;2023-06-26T02:01:12;99126.78;;;21.71;100.00
19526;BME280;9907;42.676;26.348;2023-06-26T02:03:37;99131.00;;;21.67;100.00
19526;BME280;9907;42.676;26.348;2023-06-26T02:06:03;99125.38;;;21.68;100.00
19526;BME280;9907;42.676;26.348;2023-06-26T02:08:28;99135.19;;;21.63;100.00
19526;BME280;9907;42.676;26.348;2023-06-26T02:10:54;99130.91;;;21.55;100.00
19526;BME280;9907;42.676;26.348;2023-06-26T02:13:19;99126.78;;;21.53;100.00
19526;BME280;9907;42.676;26.348;2023-06-26T02:15:45;99130.63;;;21.63;100.00
19526;BME280;9907;42.676;26.348;2023-06-26T02:18:10;99126.78;;;21.71;100.00
19526;BME280;9907;42.676;26.348;2023-06-26T02:20:36;99124.63;;;21.61;100.00
19526;BME280;9907;42.676;26.348;2023-06-26T02:23:01;99125.13;;;21.52;100.00
19526;BME280;9907;42.676;26.348;2023-06-26T02:25:27;99129.03;;;21.56;100.00
19526;BME280;9907;42.676;26.348;2023-06-26T02:27:52;99127.06;;;21.45;100.00
19526;BME280;9907;42.676;26.348;2023-06-26T02:30:18;99127.53;;;21.42;100.00
19526;BME280;9907;42.676;26.348;2023-06-26T02:32:43;99125.47;;;21.37;100.00
19526;BME280;9907;42.676;26.348;2023-06-26T02:35:09;99129.22;;;21.36;100.00
19526;BME280;9907;42.676;26.348;2023-06-26T02:37:34;99134.25;;;21.32;100.00
19526;BME280;9907;42.676;26.348;2023-06-26T02:40:00;99135.06;;;21.33;100.00
19526;BME280;9907;42.676;26.348;2023-06-26T02:42:25;99133.38;;;21.39;100.00
19526;BME280;9907;42.676;26.348;2023-06-26T02:44:51;99131.44;;;21.46;100.00
19526;BME280;9907;42.676;26.348;2023-06-26T02:47:17;99133.44;;;21.32;100.00
19526;BME280;9907;42.676;26.348;2023-06-26T02:49:42;99143.25;;;21.26;100.00
19526;BME280;9907;42.676;26.348;2023-06-26T02:52:07;99141.50;;;21.07;100.00
19526;BME280;9907;42.676;26.348;2023-06-26T02:54:33;99130.25;;;21.17;100.00
19526;BME280;9907;42.676;26.348;2023-06-26T02:56:58;99135.53;;;21.05;100.00
19526;BME280;9907;42.676;26.348;2023-06-26T02:59:25;99129.63;;;21.15;100.00
19526;BME280;9907;42.676;26.348;2023-06-26T03:01:51;99130.03;;;21.18;100.00
19526;BME280;9907;42.676;26.348;2023-06-26T03:04:16;99132.25;;;21.28;100.00
19526;BME280;9907;42.676;26.348;2023-06-26T03:06:43;99133.63;;;21.12;100.00
19526;BME280;9907;42.676;26.348;2023-06-26T03:09:08;99134.94;;;21.28;100.00
19526;BME280;9907;42.676;26.348;2023-06-26T03:11:34;99136.16;;;21.32;100.00
19526;BME280;9907;42.676;26.348;2023-06-26T03:13:59;99133.22;;;21.09;100.00
19526;BME280;9907;42.676;26.348;2023-06-26T03:16:25;99144.44;;;21.06;100.00
19526;BME280;9907;42.676;26.348;2023-06-26T03:18:50;99147.22;;;21.24;100.00
19526;BME280;9907;42.676;26.348;2023-06-26T03:21:17;99145.94;;;21.26;100.00
19526;BME280;9907;42.676;26.348;2023-06-26T03:23:42;99144.91;;;21.27;100.00
19526;BME280;9907;42.676;26.348;2023-06-26T03:26:08;99148.91;;;21.18;100.00
19526;BME280;9907;42.676;26.348;2023-06-26T03:28:33;99149.81;;;21.12;100.00
19526;BME280;9907;42.676;26.348;2023-06-26T03:30:59;99148.63;;;21.02;100.00
19526;BME280;9907;42.676;26.348;2023-06-26T03:33:24;99146.69;;;21.09;100.00
19526;BME280;9907;42.676;26.348;2023-06-26T03:35:50;99146.84;;;21.20;100.00
19526;BME280;9907;42.676;26.348;2023-06-26T03:38:15;99144.28;;;21.25;100.00
19526;BME280;9907;42.676;26.348;2023-06-26T03:40:40;99146.59;;;21.22;100.00
19526;BME280;9907;42.676;26.348;2023-06-26T03:43:06;99150.97;;;21.23;100.00
19526;BME280;9907;42.676;26.348;2023-06-26T03:45:35;99158.84;;;21.24;100.00
19526;BME280;9907;42.676;26.348;2023-06-26T03:48:00;99161.59;;;21.18;100.00
19526;BME280;9907;42.676;26.348;2023-06-26T03:50:26;99163.09;;;21.07;100.00
19526;BME280;9907;42.676;26.348;2023-06-26T03:52:51;99162.06;;;21.08;100.00
19526;BME280;9907;42.676;26.348;2023-06-26T03:55:17;99150.69;;;21.06;100.00
19526;BME280;9907;42.676;26.348;2023-06-26T03:57:43;99156.06;;;21.06;100.00
19526;BME280;9907;42.676;26.348;2023-06-26T04:00:09;99163.75;;;21.03;100.00
19526;BME280;9907;42.676;26.348;2023-06-26T04:02:37;99164.06;;;20.95;100.00
19526;BME280;9907;42.676;26.348;2023-06-26T04:05:02;99175.19;;;20.73;100.00
19526;BME280;9907;42.676;26.348;2023-06-26T04:07:31;99167.66;;;20.82;100.00
19526;BME280;9907;42.676;26.348;2023-06-26T04:09:57;99169.53;;;20.81;100.00
19526;BME280;9907;42.676;26.348;2023-06-26T04:12:22;99173.06;;;20.82;100.00
19526;BME280;9907;42.676;26.348;2023-06-26T04:14:48;99162.19;;;20.64;100.00
19526;BME280;9907;42.676;26.348;2023-06-26T04:17:13;99172.09;;;20.70;100.00
19526;BME280;9907;42.676;26.348;2023-06-26T04:19:39;99155.81;;;20.58;100.00
19526;BME280;9907;42.676;26.348;2023-06-26T04:22:04;99160.31;;;20.64;100.00
19526;BME280;9907;42.676;26.348;2023-06-26T04:24:30;99148.38;;;20.78;100.00
19526;BME280;9907;42.676;26.348;2023-06-26T04:26:55;99152.91;;;20.84;100.00
19526;BME280;9907;42.676;26.348;2023-06-26T04:29:25;99163.47;;;20.61;100.00
19526;BME280;9907;42.676;26.348;2023-06-26T04:31:52;99168.19;;;20.66;100.00
19526;BME280;9907;42.676;26.348;2023-06-26T04:34:19;99157.50;;;20.53;100.00
19526;BME280;9907;42.676;26.348;2023-06-26T04:36:44;99159.78;;;20.49;100.00
19526;BME280;9907;42.676;26.348;2023-06-26T04:39:13;99174.75;;;20.45;100.00
19526;BME280;9907;42.676;26.348;2023-06-26T04:41:40;99178.31;;;20.32;100.00
19526;BME280;9907;42.676;26.348;2023-06-26T04:44:05;99172.88;;;20.46;100.00
19526;BME280;9907;42.676;26.348;2023-06-26T04:46:31;99182.09;;;20.31;100.00
19526;BME280;9907;42.676;26.348;2023-06-26T04:48:56;99177.72;;;20.30;100.00
19526;BME280;9907;42.676;26.348;2023-06-26T04:51:26;99169.84;;;20.22;100.00
19526;BME280;9907;42.676;26.348;2023-06-26T04:53:54;99176.91;;;20.23;100.00
19526;BME280;9907;42.676;26.348;2023-06-26T04:56:19;99162.00;;;20.14;100.00
19526;BME280;9907;42.676;26.348;2023-06-26T04:58:45;99167.41;;;20.14;100.00
19526;BME280;9907;42.676;26.348;2023-06-26T05:01:19;99175.63;;;20.39;100.00
19526;BME280;9907;42.676;26.348;2023-06-26T05:03:45;99172.94;;;20.39;100.00
19526;BME280;9907;42.676;26.348;2023-06-26T05:06:10;99175.59;;;20.46;100.00
19526;BME280;9907;42.676;26.348;2023-06-26T05:08:36;99179.31;;;20.45;100.00
19526;BME280;9907;42.676;26.348;2023-06-26T05:11:01;99174.25;;;20.55;100.00
19526;BME280;9907;42.676;26.348;2023-06-26T05:13:26;99168.06;;;20.54;100.00
19526;BME280;9907;42.676;26.348;2023-06-26T05:15:52;99157.88;;;20.56;100.00
19526;BME280;9907;42.676;26.348;2023-06-26T05:18:18;99181.41;;;20.43;100.00
19526;BME280;9907;42.676;26.348;2023-06-26T05:20:44;99176.72;;;20.63;100.00
19526;BME280;9907;42.676;26.348;2023-06-26T05:23:13;99180.88;;;20.65;100.00
19526;BME280;9907;42.676;26.348;2023-06-26T05:25:39;99178.31;;;20.70;100.00
19526;BME280;9907;42.676;26.348;2023-06-26T05:28:05;99180.88;;;20.65;100.00
19526;BME280;9907;42.676;26.348;2023-06-26T05:30:31;99180.47;;;20.62;100.00
19526;BME280;9907;42.676;26.348;2023-06-26T05:33:00;99188.72;;;20.67;100.00
19526;BME280;9907;42.676;26.348;2023-06-26T05:35:28;99196.72;;;20.49;100.00
19526;BME280;9907;42.676;26.348;2023-06-26T05:37:55;99203.16;;;20.48;100.00
19526;BME280;9907;42.676;26.348;2023-06-26T05:40:21;99205.28;;;20.39;100.00
19526;BME280;9907;42.676;26.348;2023-06-26T05:42:47;99201.88;;;20.57;100.00
19526;BME280;9907;42.676;26.348;2023-06-26T05:45:12;99199.47;;;20.73;100.00
19526;BME280;9907;42.676;26.348;2023-06-26T05:47:38;99220.91;;;20.68;100.00
19526;BME280;9907;42.676;26.348;2023-06-26T05:50:04;99214.88;;;20.73;100.00
19526;BME280;9907;42.676;26.348;2023-06-26T05:52:30;99218.94;;;20.82;100.00
19526;BME280;9907;42.676;26.348;2023-06-26T05:54:56;99226.16;;;20.88;100.00
19526;BME280;9907;42.676;26.348;2023-06-26T05:57:27;99236.16;;;20.87;100.00
19526;BME280;9907;42.676;26.348;2023-06-26T05:59:53;99233.00;;;20.91;100.00
19526;BME280;9907;42.676;26.348;2023-06-26T06:02:19;99240.91;;;20.85;100.00
19526;BME280;9907;42.676;26.348;2023-06-26T06:04:44;99243.03;;;20.83;100.00
19526;BME280;9907;42.676;26.348;2023-06-26T06:07:10;99243.84;;;20.84;100.00
19526;BME280;9907;42.676;26.348;2023-06-26T06:09:35;99251.06;;;20.52;100.00
19526;BME280;9907;42.676;26.348;2023-06-26T06:12:01;99254.38;;;20.54;100.00
19526;BME280;9907;42.676;26.348;2023-06-26T06:14:29;99255.38;;;20.60;100.00
19526;BME280;9907;42.676;26.348;2023-06-26T06:16:55;99252.94;;;20.52;100.00
19526;BME280;9907;42.676;26.348;2023-06-26T06:19:22;99251.66;;;20.61;100.00
19526;BME280;9907;42.676;26.348;2023-06-26T06:21:47;99259.91;;;20.66;100.00
19526;BME280;9907;42.676;26.348;2023-06-26T06:24:13;99253.03;;;20.70;100.00
19526;BME280;9907;42.676;26.348;2023-06-26T06:26:39;99257.28;;;20.53;100.00
19526;BME280;9907;42.676;26.348;2023-06-26T06:29:04;99266.53;;;20.70;100.00
19526;BME280;9907;42.676;26.348;2023-06-26T06:31:30;99263.84;;;20.70;100.00
19526;BME280;9907;42.676;26.348;2023-06-26T06:33:55;99266.84;;;20.49;100.00
19526;BME280;9907;42.676;26.348;2023-06-26T06:36:21;99264.63;;;20.32;100.00
19526;BME280;9907;42.676;26.348;2023-06-26T06:38:46;99262.97;;;20.18;100.00
19526;BME280;9907;42.676;26.348;2023-06-26T06:41:11;99266.50;;;20.19;100.00
19526;BME280;9907;42.676;26.348;2023-06-26T06:43:38;99269.81;;;20.27;100.00
19526;BME280;9907;42.676;26.348;2023-06-26T06:46:04;99257.75;;;20.43;100.00
19526;BME280;9907;42.676;26.348;2023-06-26T06:48:30;99269.81;;;20.27;100.00
19526;BME280;9907;42.676;26.348;2023-06-26T06:50:55;99270.63;;;20.21;100.00
19526;BME280;9907;42.676;26.348;2023-06-26T06:53:21;99276.22;;;20.33;100.00
19526;BME280;9907;42.676;26.348;2023-06-26T06:55:46;99266.09;;;20.28;100.00
19526;BME280;9907;42.676;26.348;2023-06-26T06:58:12;99276.22;;;20.26;100.00
19526;BME280;9907;42.676;26.348;2023-06-26T07:00:37;99274.16;;;20.22;100.00
19526;BME280;9907;42.676;26.348;2023-06-26T07:03:03;99288.03;;;20.25;100.00
19526;BME280;9907;42.676;26.348;2023-06-26T07:05:29;99284.38;;;20.13;100.00
19526;BME280;9907;42.676;26.348;2023-06-26T07:07:55;99294.09;;;20.21;100.00
19526;BME280;9907;42.676;26.348;2023-06-26T07:10:20;99289.31;;;20.23;100.00
19526;BME280;9907;42.676;26.348;2023-06-26T07:12:46;99292.00;;;20.36;100.00
19526;BME280;9907;42.676;26.348;2023-06-26T07:15:12;99283.91;;;20.29;100.00
19526;BME280;9907;42.676;26.348;2023-06-26T07:17:37;99283.91;;;20.36;100.00
19526;BME280;9907;42.676;26.348;2023-06-26T07:20:05;99283.09;;;20.16;100.00
19526;BME280;9907;42.676;26.348;2023-06-26T07:22:36;99288.09;;;20.32;100.00
19526;BME280;9907;42.676;26.348;2023-06-26T07:25:02;99290.97;;;20.30;100.00
19526;BME280;9907;42.676;26.348;2023-06-26T07:27:29;99290.75;;;20.38;100.00
19526;BME280;9907;42.676;26.348;2023-06-26T07:29:54;99296.31;;;20.50;100.00
19526;BME280;9907;42.676;26.348;2023-06-26T07:32:20;99293.03;;;20.35;100.00
19526;BME280;9907;42.676;26.348;2023-06-26T07:34:45;99291.81;;;20.24;100.00
19526;BME280;9907;42.676;26.348;2023-06-26T07:37:11;99288.88;;;20.32;100.00
19526;BME280;9907;42.676;26.348;2023-06-26T07:39:36;99290.34;;;20.35;100.00
19526;BME280;9907;42.676;26.348;2023-06-26T07:42:02;99296.13;;;20.45;100.00
19526;BME280;9907;42.676;26.348;2023-06-26T07:44:27;99293.84;;;20.42;100.00
19526;BME280;9907;42.676;26.348;2023-06-26T07:46:53;99293.00;;;20.42;100.00
19526;BME280;9907;42.676;26.348;2023-06-26T07:49:18;99289.72;;;20.39;100.00
19526;BME280;9907;42.676;26.348;2023-06-26T07:51:44;99297.34;;;20.49;100.00
19526;BME280;9907;42.676;26.348;2023-06-26T07:54:09;99296.34;;;20.37;100.00
19526;BME280;9907;42.676;26.348;2023-06-26T07:57:01;99296.97;;;20.39;100.00
19526;BME280;9907;42.676;26.348;2023-06-26T07:59:28;99292.94;;;20.55;100.00
19526;BME280;9907;42.676;26.348;2023-06-26T08:01:54;99291.91;;;20.56;100.00
19526;BME280;9907;42.676;26.348;2023-06-26T08:04:22;99293.63;;;20.50;100.00
19526;BME280;9907;42.676;26.348;2023-06-26T08:06:52;99305.78;;;20.66;100.00
19526;BME280;9907;42.676;26.348;2023-06-26T08:09:19;99308.47;;;20.72;100.00
19526;BME280;9907;42.676;26.348;2023-06-26T08:11:46;99306.44;;;20.55;100.00
19526;BME280;9907;42.676;26.348;2023-06-26T08:14:12;99308.56;;;20.46;100.00
19526;BME280;9907;42.676;26.348;2023-06-26T08:16:41;99302.13;;;20.47;100.00
19526;BME280;9907;42.676;26.348;2023-06-26T08:19:07;99299.44;;;20.47;100.00
19526;BME280;9907;42.676;26.348;2023-06-26T08:21:33;99301.31;;;20.47;100.00
19526;BME280;9907;42.676;26.348;2023-06-26T08:23:59;99302.34;;;20.46;100.00
19526;BME280;9907;42.676;26.348;2023-06-26T08:26:24;99306.69;;;20.47;100.00
19526;BME280;9907;42.676;26.348;2023-06-26T08:28:50;99309.56;;;20.52;100.00
19526;BME280;9907;42.676;26.348;2023-06-26T08:31:16;99314.53;;;20.55;100.00
19526;BME280;9907;42.676;26.348;2023-06-26T08:33:42;99321.56;;;20.62;100.00
19526;BME280;9907;42.676;26.348;2023-06-26T08:36:07;99310.75;;;20.62;100.00
19526;BME280;9907;42.676;26.348;2023-06-26T08:38:32;99309.72;;;20.63;100.00
19526;BME280;9907;42.676;26.348;2023-06-26T08:40:59;99316.56;;;20.66;100.00
19526;BME280;9907;42.676;26.348;2023-06-26T08:43:24;99325.72;;;20.65;100.00
19526;BME280;9907;42.676;26.348;2023-06-26T08:45:51;99317.00;;;20.63;100.00
19526;BME280;9907;42.676;26.348;2023-06-26T08:48:17;99324.84;;;20.71;100.00
19526;BME280;9907;42.676;26.348;2023-06-26T08:50:44;99326.13;;;20.68;100.00
19526;BME280;9907;42.676;26.348;2023-06-26T08:56:02;99320.25;;;20.78;100.00
19526;BME280;9907;42.676;26.348;2023-06-26T08:58:28;99330.00;;;20.79;100.00
19526;BME280;9907;42.676;26.348;2023-06-26T09:00:54;99329.56;;;20.82;100.00
19526;BME280;9907;42.676;26.348;2023-06-26T09:03:21;99329.94;;;20.92;100.00
19526;BME280;9907;42.676;26.348;2023-06-26T09:05:47;99337.78;;;21.00;100.00
19526;BME280;9907;42.676;26.348;2023-06-26T09:08:12;99336.56;;;20.96;100.00
19526;BME280;9907;42.676;26.348;2023-06-26T09:10:38;99328.88;;;21.00;100.00
19526;BME280;9907;42.676;26.348;2023-06-26T09:13:05;99332.41;;;21.00;100.00
19526;BME280;9907;42.676;26.348;2023-06-26T09:15:43;99327.81;;;21.01;100.00
19526;BME280;9907;42.676;26.348;2023-06-26T09:18:09;99334.66;;;21.03;100.00
19526;BME280;9907;42.676;26.348;2023-06-26T09:20:35;99332.22;;;20.95;100.00
19526;BME280;9907;42.676;26.348;2023-06-26T09:23:01;99335.31;;;20.99;100.00
19526;BME280;9907;42.676;26.348;2023-06-26T09:25:28;99324.13;;;20.95;100.00
19526;BME280;9907;42.676;26.348;2023-06-26T09:27:54;99337.63;;;20.95;100.00
19526;BME280;9907;42.676;26.348;2023-06-26T09:30:20;99331.78;;;20.98;100.00
19526;BME280;9907;42.676;26.348;2023-06-26T09:32:46;99340.25;;;21.08;100.00
19526;BME280;9907;42.676;26.348;2023-06-26T09:35:12;99342.53;;;21.11;100.00
19526;BME280;9907;42.676;26.348;2023-06-26T09:37:37;99348.78;;;21.12;100.00
19526;BME280;9907;42.676;26.348;2023-06-26T09:40:04;99346.91;;;21.12;100.00
19526;BME280;9907;42.676;26.348;2023-06-26T09:42:33;99348.28;;;21.21;100.00
19526;BME280;9907;42.676;26.348;2023-06-26T09:44:59;99351.66;;;21.17;100.00
19526;BME280;9907;42.676;26.348;2023-06-26T09:47:25;99351.03;;;21.08;100.00
19526;BME280;9907;42.676;26.348;2023-06-26T09:49:50;99363.31;;;21.11;100.00
19526;BME280;9907;42.676;26.348;2023-06-26T09:52:18;99353.28;;;21.18;100.00
19526;BME280;9907;42.676;26.348;2023-06-26T09:54:44;99369.03;;;21.27;100.00
19526;BME280;9907;42.676;26.348;2023-06-26T09:57:16;99368.16;;;21.33;100.00
19526;BME280;9907;42.676;26.348;2023-06-26T09:59:43;99373.13;;;21.36;100.00
19526;BME280;9907;42.676;26.348;2023-06-26T10:02:11;99376.22;;;21.40;100.00
19526;BME280;9907;42.676;26.348;2023-06-26T10:04:37;99364.78;;;21.45;100.00
19526;BME280;9907;42.676;26.348;2023-06-26T10:07:08;99361.28;;;21.38;100.00
19526;BME280;9907;42.676;26.348;2023-06-26T10:09:38;99358.41;;;21.32;100.00
19526;BME280;9907;42.676;26.348;2023-06-26T10:12:16;99361.72;;;21.34;100.00
19526;BME280;9907;42.676;26.348;2023-06-26T10:14:43;99361.28;;;21.38;100.00
19526;BME280;9907;42.676;26.348;2023-06-26T10:17:16;99368.50;;;21.44;100.00
19526;BME280;9907;42.676;26.348;2023-06-26T10:19:44;99369.72;;;21.54;100.00
19526;BME280;9907;42.676;26.348;2023-06-26T10:22:12;99369.59;;;21.67;100.00
19526;BME280;9907;42.676;26.348;2023-06-26T10:24:43;99370.31;;;21.81;100.00
19526;BME280;9907;42.676;26.348;2023-06-26T10:27:20;99367.19;;;21.84;100.00
19526;BME280;9907;42.676;26.348;2023-06-26T10:29:54;99357.91;;;22.05;100.00
19526;BME280;9907;42.676;26.348;2023-06-26T10:32:23;99361.09;;;22.20;100.00
19526;BME280;9907;42.676;26.348;2023-06-26T10:34:51;99353.22;;;22.37;100.00
19526;BME280;9907;42.676;26.348;2023-06-26T10:37:16;99357.78;;;22.36;100.00
19526;BME280;9907;42.676;26.348;2023-06-26T10:39:51;99354.28;;;22.36;100.00
19526;BME280;9907;42.676;26.348;2023-06-26T10:42:33;99352.09;;;22.44;100.00
19526;BME280;9907;42.676;26.348;2023-06-26T10:45:09;99350.78;;;22.28;100.00
19526;BME280;9907;42.676;26.348;2023-06-26T10:47:35;99346.84;;;22.49;100.00
19526;BME280;9907;42.676;26.348;2023-06-26T10:52:45;99345.50;;;22.95;100.00
19526;BME280;9907;42.676;26.348;2023-06-26T10:55:13;99337.91;;;22.85;100.00
19526;BME280;9907;42.676;26.348;2023-06-26T10:57:39;99333.38;;;22.97;100.00
19526;BME280;9907;42.676;26.348;2023-06-26T11:00:09;99340.09;;;22.95;100.00
19526;BME280;9907;42.676;26.348;2023-06-26T11:02:57;99321.50;;;22.98;100.00
19526;BME280;9907;42.676;26.348;2023-06-26T11:05:26;99325.09;;;22.92;100.00
19526;BME280;9907;42.676;26.348;2023-06-26T11:08:07;99318.19;;;22.96;100.00
19526;BME280;9907;42.676;26.348;2023-06-26T11:11:02;99319.19;;;23.13;100.00
19526;BME280;9907;42.676;26.348;2023-06-26T11:13:34;99314.38;;;23.15;100.00
19526;BME280;9907;42.676;26.348;2023-06-26T11:16:01;99317.47;;;23.19;100.00
19526;BME280;9907;42.676;26.348;2023-06-26T11:18:27;99316.47;;;23.13;100.00
19526;BME280;9907;42.676;26.348;2023-06-26T11:20:53;99309.66;;;23.11;100.00
19526;BME280;9907;42.676;26.348;2023-06-26T11:23:22;99312.34;;;23.41;100.00
19526;BME280;9907;42.676;26.348;2023-06-26T11:25:51;99308.38;;;23.55;100.00
19526;BME280;9907;42.676;26.348;2023-06-26T11:28:17;99297.56;;;23.55;100.00
19526;BME280;9907;42.676;26.348;2023-06-26T11:30:42;99303.81;;;23.67;98.72
19526;BME280;9907;42.676;26.348;2023-06-26T11:33:09;99295.69;;;23.67;99.53
19526;BME280;9907;42.676;26.348;2023-06-26T11:35:35;99301.97;;;23.91;98.77
19526;BME280;9907;42.676;26.348;2023-06-26T11:38:02;99290.31;;;24.02;94.91
19526;BME280;9907;42.676;26.348;2023-06-26T11:40:35;99293.38;;;24.05;94.28
19526;BME280;9907;42.676;26.348;2023-06-26T11:43:01;99290.41;;;24.07;93.09
19526;BME280;9907;42.676;26.348;2023-06-26T11:45:29;99287.22;;;24.10;88.96
19526;BME280;9907;42.676;26.348;2023-06-26T11:47:59;99294.53;;;24.33;86.47
19526;BME280;9907;42.676;26.348;2023-06-26T11:50:25;99285.13;;;24.23;82.91
19526;BME280;9907;42.676;26.348;2023-06-26T11:52:57;99286.28;;;24.04;84.90
19526;BME280;9907;42.676;26.348;2023-06-26T11:55:24;99279.22;;;24.27;83.80
19526;BME280;9907;42.676;26.348;2023-06-26T11:57:53;99283.59;;;24.28;83.30
19526;BME280;9907;42.676;26.348;2023-06-26T12:00:20;99292.63;;;24.45;74.42
19526;BME280;9907;42.676;26.348;2023-06-26T12:02:46;99285.31;;;24.57;74.23
19526;BME280;9907;42.676;26.348;2023-06-26T12:05:13;99285.38;;;24.62;76.64
19526;BME280;9907;42.676;26.348;2023-06-26T12:07:40;99273.47;;;24.63;76.43
19526;BME280;9907;42.676;26.348;2023-06-26T12:10:07;99273.66;;;24.73;75.01
19526;BME280;9907;42.676;26.348;2023-06-26T12:12:33;99274.88;;;24.65;76.32
19526;BME280;9907;42.676;26.348;2023-06-26T12:14:58;99262.31;;;24.76;77.14
19526;BME280;9907;42.676;26.348;2023-06-26T12:17:25;99265.44;;;25.08;73.66
19526;BME280;9907;42.676;26.348;2023-06-26T12:19:51;99270.03;;;25.07;71.74
19526;BME280;9907;42.676;26.348;2023-06-26T12:22:18;99269.03;;;25.13;67.54
19526;BME280;9907;42.676;26.348;2023-06-26T12:24:44;99275.34;;;25.02;67.97
19526;BME280;9907;42.676;26.348;2023-06-26T12:27:12;99264.97;;;24.99;68.60
19526;BME280;9907;42.676;26.348;2023-06-26T12:29:40;99263.25;;;24.93;70.21
19526;BME280;9907;42.676;26.348;2023-06-26T12:32:10;99265.84;;;24.88;70.32
19526;BME280;9907;42.676;26.348;2023-06-26T12:34:39;99276.34;;;24.96;68.59
19526;BME280;9907;42.676;26.348;2023-06-26T12:37:07;99275.22;;;25.09;68.27
19526;BME280;9907;42.676;26.348;2023-06-26T12:39:50;99267.09;;;25.09;67.32
19526;BME280;9907;42.676;26.348;2023-06-26T12:42:21;99274.97;;;25.10;66.27
19526;BME280;9907;42.676;26.348;2023-06-26T12:44:49;99270.75;;;25.03;66.48
19526;BME280;9907;42.676;26.348;2023-06-26T12:47:15;99274.53;;;25.02;66.66
19526;BME280;9907;42.676;26.348;2023-06-26T12:49:43;99275.13;;;25.04;65.80
19526;BME280;9907;42.676;26.348;2023-06-26T12:52:11;99260.47;;;25.05;65.41
19526;BME280;9907;42.676;26.348;2023-06-26T12:55:02;99272.34;;;25.15;65.63
19526;BME280;9907;42.676;26.348;2023-06-26T12:57:26;99271.97;;;25.24;66.17
19526;BME280;9907;42.676;26.348;2023-06-26T12:59:52;99260.22;;;25.35;66.34